createdAt,value
2023-02-24T00:02:01.400Z,3.45
2023-02-24T00:04:38.672Z,3.45
2023-02-24T00:07:06.711Z,4.20
2023-02-24T00:09:33.590Z,3.80
2023-02-24T00:12:03.582Z,3.75
2023-02-24T00:14:33.727Z,2.67
2023-02-24T00:17:00.859Z,3.40
2023-02-24T00:19:32.789Z,2.95
2023-02-24T00:22:01.189Z,2.70
2023-02-24T00:24:28.750Z,3.30
2023-02-24T00:27:01.150Z,2.78
2023-02-24T00:29:29.497Z,2.95
2023-02-24T00:32:01.135Z,3.28
2023-02-24T00:34:34.064Z,3.47
2023-02-24T00:37:01.388Z,4.63
2023-02-24T00:39:30.524Z,3.95
2023-02-24T00:42:06.859Z,3.47
2023-02-24T00:44:44.460Z,3.30
2023-02-24T00:47:12.167Z,3.30
2023-02-24T00:49:42.453Z,3.92
2023-02-24T00:52:14.459Z,4.57
2023-02-24T00:54:42.476Z,4.22
2023-02-24T00:57:09.403Z,4.30
2023-02-24T00:59:37.273Z,4.07
2023-02-24T01:02:07.024Z,4.25
2023-02-24T01:04:34.436Z,3.95
2023-02-24T01:07:01.681Z,4.30
2023-02-24T01:09:30.614Z,4.25
2023-02-24T01:12:16.514Z,4.57
2023-02-24T01:14:47.912Z,4.63
2023-02-24T01:17:16.595Z,4.10
2023-02-24T01:19:44.771Z,4.35
2023-02-24T01:22:15.057Z,4.28
2023-02-24T01:24:43.372Z,4.90
2023-02-24T01:27:12.777Z,4.88
2023-02-24T01:29:39.606Z,5.40
2023-02-24T01:32:13.001Z,4.35
2023-02-24T01:34:42.578Z,4.30
2023-02-24T01:37:10.385Z,4.60
2023-02-24T01:39:37.522Z,4.28
2023-02-24T01:42:06.407Z,4.43
2023-02-24T01:44:33.292Z,4.07
2023-02-24T01:47:03.987Z,4.03
2023-02-24T01:49:41.268Z,4.55
2023-02-24T01:52:12.727Z,4.88
2023-02-24T01:54:49.186Z,3.60
2023-02-24T01:57:21.251Z,4.13
2023-02-24T01:59:52.290Z,3.67
2023-02-24T02:02:20.046Z,4.07
2023-02-24T02:04:57.149Z,4.20
2023-02-24T02:07:28.564Z,4.53
2023-02-24T02:10:00.272Z,3.67
2023-02-24T02:12:28.517Z,4.20
2023-02-24T02:14:59.472Z,4.03
2023-02-24T02:17:33.255Z,3.40
2023-02-24T02:20:00.528Z,3.55
2023-02-24T02:22:42.401Z,3.85
2023-02-24T02:25:16.101Z,3.25
2023-02-24T02:28:12.036Z,4.88
2023-02-24T02:30:39.345Z,4.07
2023-02-24T02:33:27.691Z,4.05
2023-02-24T02:36:07.466Z,3.38
2023-02-24T02:38:49.257Z,4.35
2023-02-24T02:41:51.835Z,5.65
2023-02-24T02:44:24.720Z,3.90
2023-02-24T02:47:00.569Z,3.88
2023-02-24T02:49:35.708Z,4.15
2023-02-24T02:52:15.505Z,3.90
2023-02-24T02:54:52.942Z,3.88
2023-02-24T02:57:29.621Z,3.85
2023-02-24T03:00:21.354Z,3.80
2023-02-24T03:02:52.076Z,3.78
2023-02-24T03:05:29.733Z,4.28
2023-02-24T03:08:00.806Z,3.97
2023-02-24T03:10:32.456Z,4.00
2023-02-24T03:13:01.750Z,3.13
2023-02-24T03:15:32.806Z,3.72
2023-02-24T03:18:10.439Z,3.70
2023-02-24T03:20:43.778Z,3.20
2023-02-24T03:23:21.884Z,3.28
2023-02-24T03:26:01.528Z,3.67
2023-02-24T03:28:45.060Z,3.58
2023-02-24T03:31:51.009Z,4.55
2023-02-24T03:34:42.863Z,3.35
2023-02-24T03:37:09.787Z,3.97
2023-02-24T03:39:36.652Z,3.20
2023-02-24T03:42:15.661Z,3.33
2023-02-24T03:44:42.292Z,3.35
2023-02-24T03:47:09.656Z,3.50
2023-02-24T03:49:38.448Z,2.85
2023-02-24T03:52:23.296Z,3.45
2023-02-24T03:54:59.158Z,2.83
2023-02-24T03:57:54.807Z,3.10
2023-02-24T04:00:38.512Z,3.80
2023-02-24T04:03:14.352Z,3.80
2023-02-24T04:05:53.489Z,4.00
2023-02-24T04:08:23.409Z,3.35
2023-02-24T04:11:05.681Z,3.65
2023-02-24T04:13:46.492Z,3.13
2023-02-24T04:16:28.940Z,3.65
2023-02-24T04:19:03.724Z,3.47
2023-02-24T04:21:33.514Z,4.07
2023-02-24T04:24:08.592Z,3.22
2023-02-24T04:26:40.528Z,3.90
2023-02-24T04:29:09.807Z,3.22
2023-02-24T04:31:39.167Z,3.45
2023-02-24T04:34:09.529Z,3.70
2023-02-24T04:36:38.896Z,3.30
2023-02-24T04:39:07.204Z,3.50
2023-02-24T04:41:35.826Z,3.17
2023-02-24T04:44:02.526Z,3.47
2023-02-24T04:46:32.541Z,3.60
2023-02-24T04:49:00.407Z,3.80
2023-02-24T04:51:26.941Z,4.18
2023-02-24T04:53:55.458Z,3.90
2023-02-24T04:56:22.464Z,3.40
2023-02-24T04:58:49.117Z,4.15
2023-02-24T05:01:15.739Z,3.72
2023-02-24T05:03:42.818Z,3.70
2023-02-24T05:06:16.225Z,3.42
2023-02-24T05:08:43.644Z,3.55
2023-02-24T05:11:16.089Z,3.30
2023-02-24T05:13:45.920Z,3.25
2023-02-24T05:16:15.118Z,3.28
2023-02-24T05:18:42.723Z,3.72
2023-02-24T05:21:32.669Z,3.20
2023-02-24T05:23:59.806Z,3.72
2023-02-24T05:26:26.763Z,3.72
2023-02-24T05:28:56.672Z,3.35
2023-02-24T05:31:26.508Z,3.60
2023-02-24T05:33:58.448Z,3.10
2023-02-24T05:36:27.021Z,3.72
2023-02-24T05:39:07.708Z,3.88
2023-02-24T05:41:38.856Z,3.38
2023-02-24T05:44:13.473Z,4.25
2023-02-24T05:46:44.580Z,3.63
2023-02-24T05:49:23.604Z,3.47
2023-02-24T05:51:55.241Z,3.30
2023-02-24T05:54:29.424Z,3.70
2023-02-24T05:57:02.377Z,3.55
2023-02-24T05:59:38.117Z,3.60
2023-02-24T06:02:07.721Z,3.17
2023-02-24T06:04:53.746Z,3.33
2023-02-24T06:07:25.893Z,3.70
2023-02-24T06:09:57.876Z,3.17
2023-02-24T06:12:26.729Z,3.42
2023-02-24T06:14:53.786Z,3.75
2023-02-24T06:17:21.538Z,3.70
2023-02-24T06:19:50.644Z,3.60
2023-02-24T06:22:20.238Z,3.60
2023-02-24T06:24:49.288Z,5.18
2023-02-24T06:27:21.456Z,3.50
2023-02-24T06:29:50.917Z,3.70
2023-02-24T06:32:23.859Z,2.67
2023-02-24T06:34:51.858Z,3.10
2023-02-24T06:37:18.440Z,3.10
2023-02-24T06:39:45.643Z,2.75
2023-02-24T06:42:13.200Z,3.13
2023-02-24T06:44:41.290Z,2.53
2023-02-24T06:47:13.171Z,3.25
2023-02-24T06:49:39.980Z,3.28
2023-02-24T06:52:06.604Z,3.05
2023-02-24T06:54:35.960Z,3.72
2023-02-24T06:57:03.482Z,2.83
2023-02-24T06:59:30.306Z,2.72
2023-02-24T07:01:58.374Z,3.03
2023-02-24T07:04:28.279Z,3.42
2023-02-24T07:06:58.312Z,3.13
2023-02-24T07:09:27.084Z,2.97
2023-02-24T07:11:56.098Z,3.08
2023-02-24T07:14:27.995Z,2.55
2023-02-24T07:16:55.172Z,2.90
2023-02-24T07:19:32.387Z,2.78
2023-02-24T07:22:03.398Z,3.30
2023-02-24T07:24:36.542Z,3.03
2023-02-24T07:27:06.412Z,3.10
2023-02-24T07:29:34.585Z,2.35
2023-02-24T07:32:05.586Z,2.90
2023-02-24T07:34:33.936Z,3.30
2023-02-24T07:37:06.620Z,2.95
2023-02-24T07:39:34.133Z,3.67
2023-02-24T07:42:00.667Z,2.85
2023-02-24T07:44:29.304Z,2.97
2023-02-24T07:46:56.914Z,3.00
2023-02-24T07:49:30.049Z,2.90
2023-02-24T07:51:58.010Z,3.00
2023-02-24T07:54:27.734Z,3.20
2023-02-24T07:56:57.699Z,2.65
2023-02-24T07:59:30.172Z,3.13
2023-02-24T08:01:57.483Z,2.95
2023-02-24T08:04:27.841Z,3.22
2023-02-24T08:06:59.114Z,2.95
2023-02-24T08:09:47.011Z,3.72
2023-02-24T08:12:21.627Z,2.95
2023-02-24T08:14:53.451Z,3.13
2023-02-24T08:17:26.578Z,3.40
2023-02-24T08:20:14.829Z,3.03
2023-02-24T08:22:44.460Z,2.78
2023-02-24T08:25:18.615Z,2.30
2023-02-24T08:28:06.737Z,2.03
2023-02-24T08:30:40.853Z,2.90
2023-02-24T08:33:11.118Z,2.55
2023-02-24T08:35:44.463Z,2.95
2023-02-24T08:38:25.952Z,2.72
2023-02-24T08:40:55.739Z,2.85
2023-02-24T08:43:33.189Z,2.30
2023-02-24T08:46:25.634Z,2.42
2023-02-24T08:48:57.815Z,2.35
2023-02-24T08:51:35.457Z,2.75
2023-02-24T08:54:15.590Z,2.80
2023-02-24T08:56:44.761Z,2.55
2023-02-24T08:59:29.116Z,2.78
2023-02-24T09:02:17.487Z,2.55
2023-02-24T09:05:00.133Z,2.35
2023-02-24T09:07:41.153Z,2.45
2023-02-24T09:10:17.910Z,2.75
2023-02-24T09:12:45.174Z,2.60
2023-02-24T09:15:15.429Z,2.25
2023-02-24T09:17:45.506Z,2.45
2023-02-24T09:20:59.356Z,2.28
2023-02-24T09:23:45.862Z,3.20
2023-02-24T09:26:14.145Z,2.45
2023-02-24T09:28:54.799Z,2.65
2023-02-24T09:31:24.646Z,2.15
2023-02-24T09:33:51.484Z,2.83
2023-02-24T09:36:30.097Z,2.75
2023-02-24T09:38:59.292Z,3.05
2023-02-24T09:41:53.867Z,3.10
2023-02-24T09:44:45.886Z,3.33
2023-02-24T09:47:18.847Z,2.80
2023-02-24T09:49:59.091Z,3.25
2023-02-24T09:52:43.219Z,3.05
2023-02-24T09:55:35.815Z,2.90
2023-02-24T09:58:43.779Z,2.50
2023-02-24T10:01:57.094Z,2.65
2023-02-24T10:04:40.676Z,2.97
2023-02-24T10:07:15.607Z,2.78
2023-02-24T10:10:20.602Z,2.72
2023-02-24T10:12:52.857Z,3.67
2023-02-24T10:15:47.193Z,3.33
2023-02-24T10:18:41.069Z,2.97
2023-02-24T10:21:30.803Z,3.45
2023-02-24T10:24:15.814Z,3.22
2023-02-24T10:27:00.746Z,3.15
2023-02-24T10:29:43.388Z,3.00
2023-02-24T10:32:33.888Z,3.92
2023-02-24T10:35:03.697Z,4.80
2023-02-24T10:37:30.443Z,3.33
2023-02-24T10:40:09.584Z,2.88
2023-02-24T10:42:44.499Z,4.20
2023-02-24T10:45:18.489Z,3.58
2023-02-24T10:47:56.691Z,3.50
2023-02-24T10:50:54.922Z,3.35
2023-02-24T10:53:28.692Z,3.58
2023-02-24T10:56:27.398Z,3.30
2023-02-24T10:59:25.549Z,3.20
2023-02-24T11:02:24.654Z,4.32
2023-02-24T11:05:04.440Z,4.45
2023-02-24T11:07:46.899Z,3.58
2023-02-24T11:10:26.395Z,4.40
2023-02-24T11:13:13.776Z,3.45
2023-02-24T11:16:12.305Z,3.10
2023-02-24T11:18:40.331Z,3.55
2023-02-24T11:21:11.155Z,3.70
2023-02-24T11:23:45.062Z,3.72
2023-02-24T11:26:23.568Z,3.60
2023-02-24T11:29:00.995Z,4.25
2023-02-24T11:31:45.771Z,3.55
2023-02-24T11:34:30.785Z,3.88
2023-02-24T11:37:20.460Z,3.83
2023-02-24T11:40:05.533Z,3.65
2023-02-24T11:42:39.033Z,3.95
2023-02-24T11:45:27.584Z,4.72
2023-02-24T11:48:19.925Z,4.80
2023-02-24T11:51:07.258Z,3.90
2023-02-24T11:53:51.707Z,3.97
2023-02-24T11:56:39.933Z,4.28
2023-02-24T11:59:25.382Z,3.75
2023-02-24T12:02:08.050Z,4.32
2023-02-24T12:04:46.435Z,4.88
2023-02-24T12:07:28.431Z,4.38
2023-02-24T12:10:14.037Z,5.00
2023-02-24T12:12:51.834Z,4.65
2023-02-24T12:18:14.762Z,4.60
2023-02-24T12:20:48.279Z,4.20
2023-02-24T12:23:21.062Z,5.18
2023-02-24T12:26:09.122Z,6.65
2023-02-24T12:28:58.973Z,4.65
2023-02-24T12:31:53.525Z,7.10
2023-02-24T12:34:43.517Z,6.10
2023-02-24T12:37:22.266Z,5.68
2023-02-24T12:40:01.390Z,5.95
2023-02-24T12:42:41.236Z,6.70
2023-02-24T12:45:38.269Z,6.25
2023-02-24T12:48:23.667Z,6.78
2023-02-24T12:51:07.504Z,6.15
2023-02-24T12:53:49.867Z,6.32
2023-02-24T12:56:35.286Z,6.60
2023-02-24T12:59:05.526Z,5.63
2023-02-24T13:01:47.383Z,6.30
2023-02-24T13:04:37.489Z,6.18
2023-02-24T13:07:17.739Z,5.68
2023-02-24T13:10:30.303Z,7.00
2023-02-24T13:13:25.563Z,6.53
2023-02-24T13:15:54.906Z,5.28
2023-02-24T13:18:39.557Z,5.78
2023-02-24T13:21:19.444Z,6.20
2023-02-24T13:24:21.435Z,5.72
2023-02-24T13:26:48.166Z,5.63
2023-02-24T13:29:16.542Z,5.13
2023-02-24T13:31:51.558Z,6.53
2023-02-24T13:34:44.327Z,5.45
2023-02-24T13:37:11.486Z,6.20
2023-02-24T13:39:44.370Z,5.45
2023-02-24T13:42:20.015Z,5.50
2023-02-24T13:45:13.316Z,5.10
2023-02-24T13:48:07.350Z,5.72
2023-02-24T13:50:55.797Z,5.18
2023-02-24T13:53:34.248Z,5.13
2023-02-24T13:56:20.128Z,4.93
2023-02-24T14:01:49.789Z,4.20
2023-02-24T14:04:32.037Z,5.22
2023-02-24T14:07:04.709Z,5.00
2023-02-24T14:09:38.612Z,4.90
2023-02-24T14:12:18.253Z,4.85
2023-02-24T14:14:46.353Z,5.03
2023-02-24T14:17:26.378Z,4.38
2023-02-24T14:19:53.016Z,4.80
2023-02-24T14:22:21.409Z,5.20
2023-02-24T14:24:48.231Z,4.57
2023-02-24T14:27:26.023Z,4.78
2023-02-24T14:29:53.280Z,4.68
2023-02-24T14:32:23.480Z,4.88
2023-02-24T14:34:50.961Z,4.93
2023-02-24T14:37:23.021Z,5.20
2023-02-24T14:39:55.192Z,5.28
2023-02-24T14:42:22.653Z,5.25
2023-02-24T14:44:52.247Z,6.03
2023-02-24T14:47:21.444Z,6.50
2023-02-24T14:49:59.873Z,5.43
2023-02-24T14:52:26.798Z,6.53
2023-02-24T14:54:58.304Z,7.10
2023-02-24T14:57:29.592Z,6.35
2023-02-24T15:00:11.397Z,6.60
2023-02-24T15:02:45.098Z,5.72
2023-02-24T15:05:12.133Z,6.05
2023-02-24T15:07:39.893Z,5.78
2023-02-24T15:10:07.888Z,7.22
2023-02-24T15:12:47.297Z,4.65
2023-02-24T15:15:16.905Z,4.53
2023-02-24T15:17:43.846Z,4.28
2023-02-24T15:20:26.409Z,4.00
2023-02-24T15:22:52.996Z,3.97
2023-02-24T15:25:33.759Z,3.50
2023-02-24T15:28:34.497Z,2.65
2023-02-24T15:31:19.499Z,2.97
2023-02-24T15:33:55.317Z,2.33
2023-02-24T15:36:25.575Z,2.65
2023-02-24T15:38:56.820Z,3.15
2023-02-24T15:41:23.922Z,3.00
2023-02-24T15:43:56.418Z,3.28
2023-02-24T15:46:29.878Z,3.33
2023-02-24T15:48:58.266Z,2.88
2023-02-24T15:51:27.881Z,3.25
2023-02-24T15:53:54.720Z,3.28
2023-02-24T15:56:21.513Z,2.78
2023-02-24T15:58:48.295Z,3.25
2023-02-24T16:01:14.973Z,2.67
2023-02-24T16:03:41.768Z,2.85
2023-02-24T16:06:19.179Z,2.85
2023-02-24T16:08:48.361Z,3.90
2023-02-24T16:11:19.302Z,2.97
2023-02-24T16:13:52.900Z,2.75
2023-02-24T16:16:21.152Z,2.90
2023-02-24T16:18:48.044Z,3.15
2023-02-24T16:21:14.560Z,2.95
2023-02-24T16:23:41.203Z,2.92
2023-02-24T16:26:20.315Z,2.45
2023-02-24T16:28:56.387Z,3.00
2023-02-24T16:31:27.245Z,2.45
2023-02-24T16:33:55.808Z,3.05
2023-02-24T16:36:25.326Z,2.70
2023-02-24T16:38:52.445Z,2.97
2023-02-24T16:41:19.305Z,3.47
2023-02-24T16:43:46.016Z,2.75
2023-02-24T16:46:19.662Z,3.17
2023-02-24T16:48:49.872Z,3.45
2023-02-24T16:51:16.995Z,2.30
2023-02-24T16:53:45.159Z,3.45
2023-02-24T16:56:12.623Z,2.97
2023-02-24T16:58:39.562Z,2.28
2023-02-24T17:01:06.338Z,2.60
2023-02-24T17:03:44.917Z,2.40
2023-02-24T17:06:11.666Z,2.30
2023-02-24T17:08:38.798Z,2.60
2023-02-24T17:11:05.549Z,2.42
2023-02-24T17:13:32.083Z,2.03
2023-02-24T17:15:58.822Z,2.30
2023-02-24T17:18:26.282Z,1.80
2023-02-24T17:20:53.541Z,1.60
2023-02-24T17:23:20.162Z,2.10
2023-02-24T17:25:53.872Z,2.05
2023-02-24T17:28:20.810Z,2.67
2023-02-24T17:30:47.542Z,1.90
2023-02-24T17:33:14.547Z,2.05
2023-02-24T17:35:42.460Z,2.20
2023-02-24T17:38:13.742Z,2.17
2023-02-24T17:40:41.773Z,1.67
2023-02-24T17:43:08.404Z,1.70
2023-02-24T17:45:35.113Z,1.50
2023-02-24T17:48:02.085Z,1.20
2023-02-24T17:50:28.792Z,1.95
2023-02-24T17:52:56.748Z,2.25
2023-02-24T17:55:23.552Z,2.00
2023-02-24T17:57:50.175Z,2.67
2023-02-24T18:00:17.420Z,1.50
2023-02-24T18:02:44.321Z,1.63
2023-02-24T18:05:11.098Z,3.20
2023-02-24T18:07:37.853Z,2.50
2023-02-24T18:10:05.301Z,2.17
2023-02-24T18:12:31.929Z,1.95
2023-02-24T18:15:07.898Z,2.72
2023-02-24T18:17:36.682Z,1.80
2023-02-24T18:20:08.370Z,2.03
2023-02-24T18:22:35.647Z,2.03
2023-02-24T18:25:02.383Z,1.63
2023-02-24T18:27:29.055Z,2.33
2023-02-24T18:29:55.853Z,2.88
2023-02-24T18:32:22.648Z,2.10
2023-02-24T18:34:49.524Z,2.28
2023-02-24T18:37:16.120Z,2.00
2023-02-24T18:39:42.763Z,1.73
2023-02-24T18:42:09.827Z,2.03
2023-02-24T18:44:36.647Z,2.47
2023-02-24T18:47:09.339Z,2.70
2023-02-24T18:49:36.523Z,2.30
2023-02-24T18:52:05.362Z,2.95
2023-02-24T18:54:32.811Z,2.80
2023-02-24T18:56:59.447Z,2.88
2023-02-24T18:59:26.084Z,2.35
2023-02-24T19:01:54.023Z,2.42
2023-02-24T19:04:20.689Z,3.25
2023-02-24T19:06:49.119Z,2.35
2023-02-24T19:09:16.607Z,2.47
2023-02-24T19:11:43.262Z,2.80
2023-02-24T19:14:12.176Z,3.35
2023-02-24T19:16:38.866Z,3.50
2023-02-24T19:19:05.933Z,2.95
2023-02-24T19:21:33.697Z,4.82
2023-02-24T19:24:03.996Z,2.53
2023-02-24T19:26:30.858Z,3.05
2023-02-24T19:28:58.628Z,2.60
2023-02-24T19:31:28.595Z,2.85
2023-02-24T19:33:57.127Z,2.92
2023-02-24T19:36:24.574Z,3.58
2023-02-24T19:38:51.824Z,2.95
2023-02-24T19:41:18.565Z,3.75
2023-02-24T19:43:45.512Z,3.33
2023-02-24T19:46:14.057Z,3.08
2023-02-24T19:48:41.140Z,3.42
2023-02-24T19:51:22.219Z,2.63
2023-02-24T19:53:52.837Z,2.58
2023-02-24T19:56:27.955Z,2.88
2023-02-24T19:58:59.526Z,3.80
2023-02-24T20:01:28.164Z,2.90
2023-02-24T20:04:00.584Z,2.17
2023-02-24T20:06:33.595Z,2.53
2023-02-24T20:09:01.022Z,2.65
2023-02-24T20:11:32.984Z,2.40
2023-02-24T20:13:59.622Z,2.20
2023-02-24T20:16:27.253Z,2.60
2023-02-24T20:18:55.302Z,3.20
2023-02-24T20:21:22.190Z,2.95
2023-02-24T20:23:48.934Z,2.72
2023-02-24T20:26:16.493Z,3.63
2023-02-24T20:28:44.438Z,3.00
2023-02-24T20:31:15.335Z,2.75
2023-02-24T20:33:43.601Z,3.05
2023-02-24T20:36:13.490Z,3.40
2023-02-24T20:38:40.114Z,3.65
2023-02-24T20:41:07.266Z,4.18
2023-02-24T20:43:34.621Z,3.58
2023-02-24T20:46:11.976Z,4.53
2023-02-24T20:48:38.641Z,4.70
2023-02-24T20:51:06.304Z,4.25
2023-02-24T20:53:34.584Z,3.30
2023-02-24T20:56:14.295Z,4.45
2023-02-24T20:58:41.265Z,3.28
2023-02-24T21:01:11.014Z,3.80
2023-02-24T21:03:39.664Z,4.38
2023-02-24T21:06:10.126Z,4.35
2023-02-24T21:08:37.436Z,3.55
2023-02-24T21:11:05.208Z,3.97
2023-02-24T21:13:31.729Z,4.07
2023-02-24T21:15:58.435Z,4.72
2023-02-24T21:18:25.105Z,3.90
2023-02-24T21:20:55.122Z,3.80
2023-02-24T21:23:21.870Z,3.50
2023-02-24T21:25:55.356Z,3.97
2023-02-24T21:28:23.538Z,3.60
2023-02-24T21:30:50.703Z,3.45
2023-02-24T21:33:18.545Z,3.72
2023-02-24T21:35:56.028Z,3.58
2023-02-24T21:38:22.559Z,4.30
2023-02-24T21:40:49.103Z,4.50
2023-02-24T21:43:15.841Z,4.28
2023-02-24T21:45:42.473Z,4.13
2023-02-24T21:48:34.707Z,3.80
2023-02-24T21:51:05.455Z,3.55
2023-02-24T21:53:35.435Z,3.60
2023-02-24T21:56:16.761Z,3.60
2023-02-24T21:58:49.215Z,3.65
2023-02-24T22:01:22.433Z,3.40
2023-02-24T22:03:49.033Z,4.50
2023-02-24T22:06:19.904Z,3.35
2023-02-24T22:08:46.918Z,3.78
2023-02-24T22:11:16.729Z,3.53
2023-02-24T22:13:44.903Z,3.20
2023-02-24T22:16:20.363Z,2.97
2023-02-24T22:18:48.412Z,2.85
2023-02-24T22:21:17.712Z,3.42
2023-02-24T22:23:45.576Z,2.85
2023-02-24T22:26:13.238Z,3.08
2023-02-24T22:28:41.719Z,2.85
2023-02-24T22:31:10.593Z,2.72
2023-02-24T22:33:40.902Z,2.47
2023-02-24T22:36:10.638Z,2.47
2023-02-24T22:38:38.554Z,2.85
2023-02-24T22:41:12.513Z,2.60
2023-02-24T22:43:39.112Z,3.25
2023-02-24T22:46:08.654Z,2.92
2023-02-24T22:48:36.735Z,2.25
2023-02-24T22:51:05.823Z,2.40
2023-02-24T22:53:34.787Z,2.72
2023-02-24T22:56:01.768Z,2.53
2023-02-24T22:58:28.477Z,2.15
2023-02-24T23:00:55.414Z,2.85
2023-02-24T23:03:25.260Z,2.00
2023-02-24T23:06:02.592Z,2.17
2023-02-24T23:08:35.833Z,2.10
2023-02-24T23:11:18.358Z,2.40
2023-02-24T23:13:49.031Z,2.28
2023-02-24T23:16:18.893Z,2.35
2023-02-24T23:18:50.900Z,2.10
2023-02-24T23:21:20.548Z,1.70
2023-02-24T23:23:47.388Z,1.98
2023-02-24T23:26:14.432Z,2.25
2023-02-24T23:28:41.217Z,1.60
2023-02-24T23:31:07.950Z,2.08
2023-02-24T23:33:34.971Z,1.83
2023-02-24T23:36:08.142Z,2.13
2023-02-24T23:38:34.749Z,2.17
2023-02-24T23:41:01.317Z,1.80
2023-02-24T23:43:46.123Z,2.00
2023-02-24T23:46:22.119Z,2.53
2023-02-24T23:48:53.615Z,2.08
2023-02-24T23:51:20.702Z,2.40
2023-02-24T23:53:48.601Z,2.05
2023-02-24T23:56:16.673Z,2.42
2023-02-24T23:58:44.328Z,2.08
